sensor_id;sensor_type;location;lat;lon;timestamp;pressure;altitude;pressure_sealevel;temperature;humidity
19128;BME280;9696;53.686;10.094;2023-05-12T00:00:53;101620.91;;;12.11;100.00
19128;BME280;9696;53.686;10.094;2023-05-12T00:03:23;101611.72;;;12.16;100.00
19128;BME280;9696;53.686;10.094;2023-05-12T00:05:52;101620.41;;;12.17;100.00
19128;BME280;9696;53.686;10.094;2023-05-12T00:08:21;101621.50;;;12.14;100.00
19128;BME280;9696;53.686;10.094;2023-05-12T00:10:52;101610.88;;;12.16;100.00
19128;BME280;9696;53.686;10.094;2023-05-12T00:13:21;101616.84;;;12.18;100.00
19128;BME280;9696;53.686;10.094;2023-05-12T00:15:51;101617.69;;;12.18;100.00
19128;BME280;9696;53.686;10.094;2023-05-12T00:18:22;101614.94;;;12.20;100.00
19128;BME280;9696;53.686;10.094;2023-05-12T00:20:51;101609.91;;;12.28;100.00
19128;BME280;9696;53.686;10.094;2023-05-12T00:23:22;101606.56;;;12.26;100.00
19128;BME280;9696;53.686;10.094;2023-05-12T00:25:52;101615.19;;;12.28;100.00
19128;BME280;9696;53.686;10.094;2023-05-12T00:28:21;101610.13;;;12.25;100.00
19128;BME280;9696;53.686;10.094;2023-05-12T00:30:50;101614.44;;;12.26;100.00
19128;BME280;9696;53.686;10.094;2023-05-12T00:33:20;101622.91;;;12.29;100.00
19128;BME280;9696;53.686;10.094;2023-05-12T00:35:49;101606.44;;;12.27;100.00
19128;BME280;9696;53.686;10.094;2023-05-12T00:38:18;101617.66;;;12.29;100.00
19128;BME280;9696;53.686;10.094;2023-05-12T00:40:47;101607.50;;;12.25;100.00
19128;BME280;9696;53.686;10.094;2023-05-12T00:43:17;101616.13;;;12.27;100.00
19128;BME280;9696;53.686;10.094;2023-05-12T00:45:47;101612.53;;;12.28;100.00
19128;BME280;9696;53.686;10.094;2023-05-12T00:48:16;101618.66;;;12.28;100.00
19128;BME280;9696;53.686;10.094;2023-05-12T00:50:46;101610.59;;;12.30;100.00
19128;BME280;9696;53.686;10.094;2023-05-12T00:53:15;101612.88;;;12.35;100.00
19128;BME280;9696;53.686;10.094;2023-05-12T00:55:45;101621.88;;;12.32;100.00
19128;BME280;9696;53.686;10.094;2023-05-12T00:58:14;101616.59;;;12.32;100.00
19128;BME280;9696;53.686;10.094;2023-05-12T01:00:45;101619.22;;;12.32;100.00
19128;BME280;9696;53.686;10.094;2023-05-12T01:03:14;101612.63;;;12.38;100.00
19128;BME280;9696;53.686;10.094;2023-05-12T01:05:48;101618.72;;;12.38;100.00
19128;BME280;9696;53.686;10.094;2023-05-12T01:08:19;101624.72;;;12.40;100.00
19128;BME280;9696;53.686;10.094;2023-05-12T01:10:48;101622.91;;;12.41;100.00
19128;BME280;9696;53.686;10.094;2023-05-12T01:13:19;101622.53;;;12.45;100.00
19128;BME280;9696;53.686;10.094;2023-05-12T01:15:51;101622.75;;;12.53;100.00
19128;BME280;9696;53.686;10.094;2023-05-12T01:18:22;101621.91;;;12.53;100.00
19128;BME280;9696;53.686;10.094;2023-05-12T01:20:53;101625.13;;;12.56;100.00
19128;BME280;9696;53.686;10.094;2023-05-12T01:23:28;101620.84;;;12.55;100.00
19128;BME280;9696;53.686;10.094;2023-05-12T01:26:05;101622.75;;;12.53;100.00
19128;BME280;9696;53.686;10.094;2023-05-12T01:28:35;101622.75;;;12.53;100.00
19128;BME280;9696;53.686;10.094;2023-05-12T01:31:06;101623.34;;;12.57;100.00
19128;BME280;9696;53.686;10.094;2023-05-12T01:33:38;101626.81;;;12.57;100.00
19128;BME280;9696;53.686;10.094;2023-05-12T01:36:08;101625.53;;;12.52;100.00
19128;BME280;9696;53.686;10.094;2023-05-12T01:38:37;101623.72;;;12.52;100.00
19128;BME280;9696;53.686;10.094;2023-05-12T01:41:09;101631.25;;;12.57;100.00
19128;BME280;9696;53.686;10.094;2023-05-12T01:43:38;101633.44;;;12.52;100.00
19128;BME280;9696;53.686;10.094;2023-05-12T01:46:07;101635.94;;;12.42;100.00
19128;BME280;9696;53.686;10.094;2023-05-12T01:48:39;101635.47;;;12.48;100.00
19128;BME280;9696;53.686;10.094;2023-05-12T01:51:09;101642.75;;;12.56;100.00
19128;BME280;9696;53.686;10.094;2023-05-12T01:53:38;101637.94;;;12.61;100.00
19128;BME280;9696;53.686;10.094;2023-05-12T01:56:08;101640.47;;;12.62;100.00
19128;BME280;9696;53.686;10.094;2023-05-12T01:58:37;101642.84;;;12.65;100.00
19128;BME280;9696;53.686;10.094;2023-05-12T02:01:06;101639.25;;;12.66;100.00
19128;BME280;9696;53.686;10.094;2023-05-12T02:03:36;101638.16;;;12.69;100.00
19128;BME280;9696;53.686;10.094;2023-05-12T02:06:11;101638.75;;;12.72;100.00
19128;BME280;9696;53.686;10.094;2023-05-12T02:08:40;101644.41;;;12.68;100.00
19128;BME280;9696;53.686;10.094;2023-05-12T02:11:10;101648.34;;;12.62;100.00
19128;BME280;9696;53.686;10.094;2023-05-12T02:13:40;101654.78;;;12.69;100.00
19128;BME280;9696;53.686;10.094;2023-05-12T02:16:09;101657.41;;;12.69;100.00
19128;BME280;9696;53.686;10.094;2023-05-12T02:18:38;101649.78;;;12.66;100.00
19128;BME280;9696;53.686;10.094;2023-05-12T02:21:07;101661.72;;;12.70;100.00
19128;BME280;9696;53.686;10.094;2023-05-12T02:23:36;101649.53;;;12.69;100.00
19128;BME280;9696;53.686;10.094;2023-05-12T02:26:06;101655.63;;;12.70;100.00
19128;BME280;9696;53.686;10.094;2023-05-12T02:28:37;101658.38;;;12.68;100.00
19128;BME280;9696;53.686;10.094;2023-05-12T02:31:06;101656.22;;;12.73;100.00
19128;BME280;9696;53.686;10.094;2023-05-12T02:33:35;101654.53;;;12.72;100.00
19128;BME280;9696;53.686;10.094;2023-05-12T02:36:05;101650.84;;;12.75;100.00
19128;BME280;9696;53.686;10.094;2023-05-12T02:38:35;101660.03;;;12.81;100.00
19128;BME280;9696;53.686;10.094;2023-05-12T02:41:04;101653.47;;;12.75;100.00
19128;BME280;9696;53.686;10.094;2023-05-12T02:43:33;101649.75;;;12.77;100.00
19128;BME280;9696;53.686;10.094;2023-05-12T02:46:05;101650.00;;;12.74;100.00
19128;BME280;9696;53.686;10.094;2023-05-12T02:48:34;101651.31;;;12.69;100.00
19128;BME280;9696;53.686;10.094;2023-05-12T02:51:04;101653.94;;;12.69;100.00
19128;BME280;9696;53.686;10.094;2023-05-12T02:53:33;101661.84;;;12.69;100.00
19128;BME280;9696;53.686;10.094;2023-05-12T02:56:02;101660.06;;;12.69;100.00
19128;BME280;9696;53.686;10.094;2023-05-12T02:58:32;101660.06;;;12.69;100.00
19128;BME280;9696;53.686;10.094;2023-05-12T03:01:02;101663.53;;;12.70;100.00
19128;BME280;9696;53.686;10.094;2023-05-12T03:03:40;101664.63;;;12.67;100.00
19128;BME280;9696;53.686;10.094;2023-05-12T03:06:09;101674.06;;;12.70;100.00
19128;BME280;9696;53.686;10.094;2023-05-12T03:08:39;101667.25;;;12.67;100.00
19128;BME280;9696;53.686;10.094;2023-05-12T03:11:08;101667.63;;;12.63;100.00
19128;BME280;9696;53.686;10.094;2023-05-12T03:13:37;101665.81;;;12.63;100.00
19128;BME280;9696;53.686;10.094;2023-05-12T03:16:07;101668.09;;;12.68;100.00
19128;BME280;9696;53.686;10.094;2023-05-12T03:18:36;101668.78;;;12.70;100.00
19128;BME280;9696;53.686;10.094;2023-05-12T03:21:07;101666.88;;;12.61;100.00
19128;BME280;9696;53.686;10.094;2023-05-12T03:23:36;101665.81;;;12.63;100.00
19128;BME280;9696;53.686;10.094;2023-05-12T03:26:05;101674.16;;;12.68;100.00
19128;BME280;9696;53.686;10.094;2023-05-12T03:28:35;101670.84;;;12.66;100.00
19128;BME280;9696;53.686;10.094;2023-05-12T03:31:04;101680.16;;;12.70;100.00
19128;BME280;9696;53.686;10.094;2023-05-12T03:33:33;101667.25;;;12.67;100.00
19128;BME280;9696;53.686;10.094;2023-05-12T03:36:03;101676.31;;;12.74;100.00
19128;BME280;9696;53.686;10.094;2023-05-12T03:38:34;101674.66;;;12.73;100.00
19128;BME280;9696;53.686;10.094;2023-05-12T03:41:03;101678.13;;;12.74;100.00
19128;BME280;9696;53.686;10.094;2023-05-12T03:43:33;101673.56;;;12.76;100.00
19128;BME280;9696;53.686;10.094;2023-05-12T03:46:03;101675.59;;;12.72;100.00
19128;BME280;9696;53.686;10.094;2023-05-12T03:48:32;101676.06;;;12.77;100.00
19128;BME280;9696;53.686;10.094;2023-05-12T03:51:02;101673.44;;;12.77;100.00
19128;BME280;9696;53.686;10.094;2023-05-12T03:53:33;101673.53;;;12.87;100.00
19128;BME280;9696;53.686;10.094;2023-05-12T03:56:05;101677.13;;;12.86;100.00
19128;BME280;9696;53.686;10.094;2023-05-12T03:58:34;101676.88;;;12.89;100.00
19128;BME280;9696;53.686;10.094;2023-05-12T04:01:04;101684.66;;;12.91;100.00
19128;BME280;9696;53.686;10.094;2023-05-12T04:03:34;101676.75;;;12.91;100.00
19128;BME280;9696;53.686;10.094;2023-05-12T04:06:03;101684.88;;;12.99;100.00
19128;BME280;9696;53.686;10.094;2023-05-12T04:08:34;101682.34;;;12.97;100.00
19128;BME280;9696;53.686;10.094;2023-05-12T04:11:03;101691.00;;;12.99;100.00
19128;BME280;9696;53.686;10.094;2023-05-12T04:13:32;101688.22;;;13.01;100.00
19128;BME280;9696;53.686;10.094;2023-05-12T04:16:01;101684.75;;;13.00;100.00
19128;BME280;9696;53.686;10.094;2023-05-12T04:18:31;101687.25;;;13.02;100.00
19128;BME280;9696;53.686;10.094;2023-05-12T04:21:00;101694.91;;;13.05;100.00
19128;BME280;9696;53.686;10.094;2023-05-12T04:23:29;101697.28;;;13.08;100.00
19128;BME280;9696;53.686;10.094;2023-05-12T04:26:02;101698.97;;;13.09;100.00
19128;BME280;9696;53.686;10.094;2023-05-12T04:28:31;101708.22;;;13.14;100.00
19128;BME280;9696;53.686;10.094;2023-05-12T04:31:04;101704.84;;;13.12;100.00
19128;BME280;9696;53.686;10.094;2023-05-12T04:33:34;101709.63;;;13.18;100.00
19128;BME280;9696;53.686;10.094;2023-05-12T04:36:05;101710.22;;;13.22;100.00
19128;BME280;9696;53.686;10.094;2023-05-12T04:38:35;101715.22;;;13.25;100.00
19128;BME280;9696;53.686;10.094;2023-05-12T04:41:05;101714.75;;;13.31;100.00
19128;BME280;9696;53.686;10.094;2023-05-12T04:43:35;101713.16;;;13.29;100.00
19128;BME280;9696;53.686;10.094;2023-05-12T04:46:07;101710.53;;;13.29;100.00
19128;BME280;9696;53.686;10.094;2023-05-12T04:48:36;101721.75;;;13.42;100.00
19128;BME280;9696;53.686;10.094;2023-05-12T04:51:08;101715.25;;;13.46;100.00
19128;BME280;9696;53.686;10.094;2023-05-12T04:53:37;101718.78;;;13.56;100.00
19128;BME280;9696;53.686;10.094;2023-05-12T04:56:08;101727.81;;;13.53;100.00
19128;BME280;9696;53.686;10.094;2023-05-12T04:58:38;101723.94;;;13.57;100.00
19128;BME280;9696;53.686;10.094;2023-05-12T05:01:07;101730.38;;;13.64;100.00
19128;BME280;9696;53.686;10.094;2023-05-12T05:03:39;101729.63;;;13.74;100.00
19128;BME280;9696;53.686;10.094;2023-05-12T05:06:09;101732.19;;;13.85;100.00
19128;BME280;9696;53.686;10.094;2023-05-12T05:08:38;101739.00;;;13.87;100.00
19128;BME280;9696;53.686;10.094;2023-05-12T05:11:10;101734.91;;;13.94;100.00
19128;BME280;9696;53.686;10.094;2023-05-12T05:13:39;101746.72;;;14.00;100.00
19128;BME280;9696;53.686;10.094;2023-05-12T05:16:08;101740.22;;;14.04;100.00
19128;BME280;9696;53.686;10.094;2023-05-12T05:18:38;101750.59;;;13.96;100.00
19128;BME280;9696;53.686;10.094;2023-05-12T05:21:09;101742.59;;;14.07;100.00
19128;BME280;9696;53.686;10.094;2023-05-12T05:23:38;101739.63;;;14.21;100.00
19128;BME280;9696;53.686;10.094;2023-05-12T05:26:10;101751.66;;;14.35;100.00
19128;BME280;9696;53.686;10.094;2023-05-12T05:28:39;101737.38;;;14.37;100.00
19128;BME280;9696;53.686;10.094;2023-05-12T05:31:15;101743.06;;;14.42;100.00
19128;BME280;9696;53.686;10.094;2023-05-12T05:33:44;101750.94;;;14.53;100.00
19128;BME280;9696;53.686;10.094;2023-05-12T05:36:13;101751.91;;;14.62;100.00
19128;BME280;9696;53.686;10.094;2023-05-12T05:38:43;101755.00;;;14.67;100.00
19128;BME280;9696;53.686;10.094;2023-05-12T05:41:13;101762.69;;;14.80;100.00
19128;BME280;9696;53.686;10.094;2023-05-12T05:43:42;101758.97;;;14.92;100.00
19128;BME280;9696;53.686;10.094;2023-05-12T05:46:12;101757.88;;;15.04;100.00
19128;BME280;9696;53.686;10.094;2023-05-12T05:48:42;101766.94;;;15.11;100.00
19128;BME280;9696;53.686;10.094;2023-05-12T05:51:12;101765.81;;;15.14;100.00
19128;BME280;9696;53.686;10.094;2023-05-12T05:53:41;101764.56;;;15.18;100.00
19128;BME280;9696;53.686;10.094;2023-05-12T05:56:13;101758.91;;;15.32;100.00
19128;BME280;9696;53.686;10.094;2023-05-12T05:58:42;101769.31;;;15.33;100.00
19128;BME280;9696;53.686;10.094;2023-05-12T06:01:12;101768.47;;;15.33;100.00
19128;BME280;9696;53.686;10.094;2023-05-12T06:03:42;101773.38;;;15.47;100.00
19128;BME280;9696;53.686;10.094;2023-05-12T06:06:12;101776.31;;;15.63;100.00
19128;BME280;9696;53.686;10.094;2023-05-12T06:08:41;101763.78;;;15.65;100.00
19128;BME280;9696;53.686;10.094;2023-05-12T06:11:12;101769.06;;;15.84;100.00
19128;BME280;9696;53.686;10.094;2023-05-12T06:13:44;101776.81;;;16.05;100.00
19128;BME280;9696;53.686;10.094;2023-05-12T06:16:13;101768.72;;;16.26;100.00
19128;BME280;9696;53.686;10.094;2023-05-12T06:18:42;101777.38;;;16.18;100.00
19128;BME280;9696;53.686;10.094;2023-05-12T06:21:12;101784.16;;;16.30;100.00
19128;BME280;9696;53.686;10.094;2023-05-12T06:23:41;101776.22;;;16.30;100.00
19128;BME280;9696;53.686;10.094;2023-05-12T06:26:14;101785.59;;;16.52;100.00
19128;BME280;9696;53.686;10.094;2023-05-12T06:28:44;101785.66;;;16.42;100.00
19128;BME280;9696;53.686;10.094;2023-05-12T06:31:13;101782.00;;;16.53;100.00
19128;BME280;9696;53.686;10.094;2023-05-12T06:33:42;101790.25;;;16.40;100.00
19128;BME280;9696;53.686;10.094;2023-05-12T06:36:12;101784.19;;;16.67;100.00
19128;BME280;9696;53.686;10.094;2023-05-12T06:38:41;101781.34;;;16.41;100.00
19128;BME280;9696;53.686;10.094;2023-05-12T06:41:14;101791.56;;;16.73;100.00
19128;BME280;9696;53.686;10.094;2023-05-12T06:43:43;101796.16;;;16.71;100.00
19128;BME280;9696;53.686;10.094;2023-05-12T06:46:13;101798.78;;;16.81;100.00
19128;BME280;9696;53.686;10.094;2023-05-12T06:48:42;101797.47;;;16.94;100.00
19128;BME280;9696;53.686;10.094;2023-05-12T06:51:12;101795.16;;;16.82;100.00
19128;BME280;9696;53.686;10.094;2023-05-12T06:53:41;101801.22;;;16.92;100.00
19128;BME280;9696;53.686;10.094;2023-05-12T06:56:10;101800.88;;;17.05;100.00
19128;BME280;9696;53.686;10.094;2023-05-12T06:58:44;101802.13;;;17.10;100.00
19128;BME280;9696;53.686;10.094;2023-05-12T07:01:14;101808.31;;;17.01;100.00
19128;BME280;9696;53.686;10.094;2023-05-12T07:03:44;101809.06;;;17.11;100.00
19128;BME280;9696;53.686;10.094;2023-05-12T07:06:13;101813.97;;;17.33;100.00
19128;BME280;9696;53.686;10.094;2023-05-12T07:08:42;101813.25;;;17.59;100.00
19128;BME280;9696;53.686;10.094;2023-05-12T07:11:11;101807.94;;;17.59;100.00
19128;BME280;9696;53.686;10.094;2023-05-12T07:13:48;101810.34;;;18.05;100.00
19128;BME280;9696;53.686;10.094;2023-05-12T07:16:18;101809.66;;;18.03;100.00
19128;BME280;9696;53.686;10.094;2023-05-12T07:18:48;101810.34;;;17.87;100.00
19128;BME280;9696;53.686;10.094;2023-05-12T07:21:17;101820.00;;;17.88;100.00
19128;BME280;9696;53.686;10.094;2023-05-12T07:23:46;101815.28;;;17.82;100.00
19128;BME280;9696;53.686;10.094;2023-05-12T07:26:15;101822.72;;;17.79;100.00
19128;BME280;9696;53.686;10.094;2023-05-12T07:28:46;101821.78;;;18.06;100.00
19128;BME280;9696;53.686;10.094;2023-05-12T07:31:15;101819.88;;;18.16;100.00
19128;BME280;9696;53.686;10.094;2023-05-12T07:33:45;101823.38;;;18.42;100.00
19128;BME280;9696;53.686;10.094;2023-05-12T07:36:14;101822.69;;;18.14;100.00
19128;BME280;9696;53.686;10.094;2023-05-12T07:38:43;101817.44;;;18.74;100.00
19128;BME280;9696;53.686;10.094;2023-05-12T07:41:12;101817.06;;;18.69;100.00
19128;BME280;9696;53.686;10.094;2023-05-12T07:43:42;101821.31;;;18.54;100.00
19128;BME280;9696;53.686;10.094;2023-05-12T07:46:12;101826.34;;;18.39;100.00
19128;BME280;9696;53.686;10.094;2023-05-12T07:48:41;101830.13;;;18.88;100.00
19128;BME280;9696;53.686;10.094;2023-05-12T07:51:10;101827.28;;;19.23;100.00
19128;BME280;9696;53.686;10.094;2023-05-12T07:53:40;101825.19;;;19.43;100.00
19128;BME280;9696;53.686;10.094;2023-05-12T07:56:09;101828.88;;;19.16;100.00
19128;BME280;9696;53.686;10.094;2023-05-12T07:58:38;101833.34;;;18.66;100.00
19128;BME280;9696;53.686;10.094;2023-05-12T08:01:07;101826.78;;;18.86;100.00
19128;BME280;9696;53.686;10.094;2023-05-12T08:03:38;101827.66;;;19.45;100.00
19128;BME280;9696;53.686;10.094;2023-05-12T08:06:07;101825.19;;;20.24;100.00
19128;BME280;9696;53.686;10.094;2023-05-12T08:08:37;101833.06;;;20.34;100.00
19128;BME280;9696;53.686;10.094;2023-05-12T08:11:06;101835.88;;;20.32;100.00
19128;BME280;9696;53.686;10.094;2023-05-12T08:13:36;101832.34;;;20.48;100.00
19128;BME280;9696;53.686;10.094;2023-05-12T08:16:05;101831.56;;;20.86;100.00
19128;BME280;9696;53.686;10.094;2023-05-12T08:18:34;101836.34;;;20.28;100.00
19128;BME280;9696;53.686;10.094;2023-05-12T08:21:05;101837.56;;;20.88;100.00
19128;BME280;9696;53.686;10.094;2023-05-12T08:23:34;101827.16;;;21.40;100.00
19128;BME280;9696;53.686;10.094;2023-05-12T08:26:04;101829.09;;;21.24;100.00
19128;BME280;9696;53.686;10.094;2023-05-12T08:28:33;101832.03;;;21.82;100.00
19128;BME280;9696;53.686;10.094;2023-05-12T08:31:03;101833.47;;;22.16;100.00
19128;BME280;9696;53.686;10.094;2023-05-12T08:33:33;101829.13;;;22.29;100.00
19128;BME280;9696;53.686;10.094;2023-05-12T08:36:05;101831.47;;;22.47;100.00
19128;BME280;9696;53.686;10.094;2023-05-12T08:38:34;101832.91;;;22.20;100.00
19128;BME280;9696;53.686;10.094;2023-05-12T08:41:10;101835.53;;;21.83;100.00
19128;BME280;9696;53.686;10.094;2023-05-12T08:43:43;101824.06;;;22.49;100.00
19128;BME280;9696;53.686;10.094;2023-05-12T08:46:12;101828.47;;;21.67;100.00
19128;BME280;9696;53.686;10.094;2023-05-12T08:48:45;101825.66;;;20.99;98.33
19128;BME280;9696;53.686;10.094;2023-05-12T08:51:17;101826.69;;;22.86;100.00
19128;BME280;9696;53.686;10.094;2023-05-12T08:53:48;101832.03;;;22.72;97.64
19128;BME280;9696;53.686;10.094;2023-05-12T08:56:19;101827.00;;;22.25;91.46
19128;BME280;9696;53.686;10.094;2023-05-12T08:58:53;101825.59;;;22.81;89.38
19128;BME280;9696;53.686;10.094;2023-05-12T09:01:24;101829.91;;;23.32;88.82
19128;BME280;9696;53.686;10.094;2023-05-12T09:03:53;101833.03;;;23.00;86.02
19128;BME280;9696;53.686;10.094;2023-05-12T09:06:24;101832.13;;;22.64;89.83
19128;BME280;9696;53.686;10.094;2023-05-12T09:08:53;101836.72;;;23.35;87.10
19128;BME280;9696;53.686;10.094;2023-05-12T09:11:22;101824.41;;;23.55;84.26
19128;BME280;9696;53.686;10.094;2023-05-12T09:13:59;101831.63;;;22.31;86.38
19128;BME280;9696;53.686;10.094;2023-05-12T09:16:30;101835.06;;;22.54;93.29
19128;BME280;9696;53.686;10.094;2023-05-12T09:19:01;101826.34;;;23.25;89.07
19128;BME280;9696;53.686;10.094;2023-05-12T09:21:35;101829.31;;;23.16;84.73
19128;BME280;9696;53.686;10.094;2023-05-12T09:24:05;101833.38;;;22.24;83.32
19128;BME280;9696;53.686;10.094;2023-05-12T09:26:45;101834.16;;;23.06;84.59
19128;BME280;9696;53.686;10.094;2023-05-12T09:29:15;101834.69;;;21.82;82.15
19128;BME280;9696;53.686;10.094;2023-05-12T09:31:56;101837.72;;;23.13;89.46
19128;BME280;9696;53.686;10.094;2023-05-12T09:34:28;101835.00;;;23.84;82.04
19128;BME280;9696;53.686;10.094;2023-05-12T09:37:01;101839.06;;;23.38;79.51
19128;BME280;9696;53.686;10.094;2023-05-12T09:39:30;101828.94;;;23.55;78.20
19128;BME280;9696;53.686;10.094;2023-05-12T09:42:00;101842.03;;;23.28;81.66
19128;BME280;9696;53.686;10.094;2023-05-12T09:44:30;101821.88;;;23.68;81.49
19128;BME280;9696;53.686;10.094;2023-05-12T09:47:05;101832.16;;;22.78;82.87
19128;BME280;9696;53.686;10.094;2023-05-12T09:49:34;101824.44;;;23.76;85.17
19128;BME280;9696;53.686;10.094;2023-05-12T09:52:05;101831.97;;;23.66;82.64
19128;BME280;9696;53.686;10.094;2023-05-12T09:54:35;101821.34;;;24.01;76.38
19128;BME280;9696;53.686;10.094;2023-05-12T09:57:08;101823.13;;;24.42;69.45
19128;BME280;9696;53.686;10.094;2023-05-12T09:59:39;101823.38;;;23.99;73.27
19128;BME280;9696;53.686;10.094;2023-05-12T10:02:12;101830.16;;;24.16;77.58
19128;BME280;9696;53.686;10.094;2023-05-12T10:04:45;101817.19;;;24.19;72.20
19128;BME280;9696;53.686;10.094;2023-05-12T10:07:20;101823.94;;;23.30;77.25
19128;BME280;9696;53.686;10.094;2023-05-12T10:09:50;101823.41;;;23.20;69.60
19128;BME280;9696;53.686;10.094;2023-05-12T10:12:21;101823.25;;;22.48;79.98
19128;BME280;9696;53.686;10.094;2023-05-12T10:14:51;101825.63;;;23.95;84.92
19128;BME280;9696;53.686;10.094;2023-05-12T10:17:21;101815.16;;;24.21;75.02
19128;BME280;9696;53.686;10.094;2023-05-12T10:19:52;101819.97;;;22.90;82.87
19128;BME280;9696;53.686;10.094;2023-05-12T10:22:24;101822.88;;;22.37;82.53
19128;BME280;9696;53.686;10.094;2023-05-12T10:24:55;101828.25;;;22.66;80.32
19128;BME280;9696;53.686;10.094;2023-05-12T10:27:24;101822.09;;;24.16;78.49
19128;BME280;9696;53.686;10.094;2023-05-12T10:29:54;101815.72;;;23.95;80.35
19128;BME280;9696;53.686;10.094;2023-05-12T10:32:24;101831.94;;;22.94;91.92
19128;BME280;9696;53.686;10.094;2023-05-12T10:34:53;101829.56;;;22.70;86.38
19128;BME280;9696;53.686;10.094;2023-05-12T10:37:24;101825.13;;;23.42;82.85
19128;BME280;9696;53.686;10.094;2023-05-12T10:39:56;101816.94;;;24.14;77.97
19128;BME280;9696;53.686;10.094;2023-05-12T10:42:35;101815.63;;;24.31;71.23
19128;BME280;9696;53.686;10.094;2023-05-12T10:45:14;101809.25;;;22.76;75.85
19128;BME280;9696;53.686;10.094;2023-05-12T10:47:45;101814.78;;;24.31;78.40
19128;BME280;9696;53.686;10.094;2023-05-12T10:50:25;101809.66;;;24.70;79.53
19128;BME280;9696;53.686;10.094;2023-05-12T10:52:56;101809.72;;;24.83;75.74
19128;BME280;9696;53.686;10.094;2023-05-12T10:55:33;101815.72;;;24.17;72.36
19128;BME280;9696;53.686;10.094;2023-05-12T10:58:05;101814.06;;;24.16;74.69
19128;BME280;9696;53.686;10.094;2023-05-12T11:00:46;101801.41;;;24.37;67.28
19128;BME280;9696;53.686;10.094;2023-05-12T11:03:23;101816.97;;;24.49;59.14
19128;BME280;9696;53.686;10.094;2023-05-12T11:06:04;101813.59;;;25.22;58.54
19128;BME280;9696;53.686;10.094;2023-05-12T11:08:36;101817.75;;;25.24;63.92
19128;BME280;9696;53.686;10.094;2023-05-12T11:11:06;101819.31;;;25.60;60.92
19128;BME280;9696;53.686;10.094;2023-05-12T11:13:36;101811.75;;;25.16;64.94
19128;BME280;9696;53.686;10.094;2023-05-12T11:16:05;101807.59;;;25.13;58.66
19128;BME280;9696;53.686;10.094;2023-05-12T11:18:39;101813.31;;;26.04;59.25
19128;BME280;9696;53.686;10.094;2023-05-12T11:21:09;101812.91;;;24.59;56.89
19128;BME280;9696;53.686;10.094;2023-05-12T11:23:40;101810.75;;;24.82;49.83
19128;BME280;9696;53.686;10.094;2023-05-12T11:26:16;101821.34;;;24.56;44.90
19128;BME280;9696;53.686;10.094;2023-05-12T11:28:46;101827.97;;;24.95;47.93
19128;BME280;9696;53.686;10.094;2023-05-12T11:31:17;101820.72;;;24.89;44.08
19128;BME280;9696;53.686;10.094;2023-05-12T11:33:48;101822.06;;;24.78;45.87
19128;BME280;9696;53.686;10.094;2023-05-12T11:36:36;101824.56;;;24.79;44.40
19128;BME280;9696;53.686;10.094;2023-05-12T11:39:10;101825.34;;;24.32;40.95
19128;BME280;9696;53.686;10.094;2023-05-12T11:41:40;101825.84;;;24.83;44.78
19128;BME280;9696;53.686;10.094;2023-05-12T11:44:14;101825.72;;;24.64;48.06
19128;BME280;9696;53.686;10.094;2023-05-12T11:46:54;101829.53;;;24.82;50.56
19128;BME280;9696;53.686;10.094;2023-05-12T11:49:23;101823.50;;;24.39;43.91
19128;BME280;9696;53.686;10.094;2023-05-12T11:51:53;101837.88;;;24.25;39.56
19128;BME280;9696;53.686;10.094;2023-05-12T11:54:24;101840.41;;;25.09;48.72
19128;BME280;9696;53.686;10.094;2023-05-12T11:56:56;101833.94;;;25.44;42.33
19128;BME280;9696;53.686;10.094;2023-05-12T11:59:27;101825.81;;;24.77;41.70
19128;BME280;9696;53.686;10.094;2023-05-12T12:01:57;101829.13;;;25.20;44.15
19128;BME280;9696;53.686;10.094;2023-05-12T12:04:33;101833.25;;;25.29;39.35
19128;BME280;9696;53.686;10.094;2023-05-12T12:07:03;101831.94;;;25.59;36.80
19128;BME280;9696;53.686;10.094;2023-05-12T12:09:35;101834.31;;;25.28;38.78
19128;BME280;9696;53.686;10.094;2023-05-12T12:12:06;101838.63;;;25.29;38.79
19128;BME280;9696;53.686;10.094;2023-05-12T12:14:36;101831.34;;;25.10;37.29
19128;BME280;9696;53.686;10.094;2023-05-12T12:17:08;101833.00;;;25.11;37.38
19128;BME280;9696;53.686;10.094;2023-05-12T12:19:37;101834.38;;;24.59;37.03
19128;BME280;9696;53.686;10.094;2023-05-12T12:22:06;101836.09;;;25.14;39.38
19128;BME280;9696;53.686;10.094;2023-05-12T12:24:36;101841.28;;;24.81;42.95
19128;BME280;9696;53.686;10.094;2023-05-12T12:27:05;101822.09;;;25.25;41.30
19128;BME280;9696;53.686;10.094;2023-05-12T12:29:34;101835.31;;;25.20;39.73
19128;BME280;9696;53.686;10.094;2023-05-12T12:32:04;101840.63;;;25.74;42.10
19128;BME280;9696;53.686;10.094;2023-05-12T12:34:33;101838.06;;;25.40;41.96
19128;BME280;9696;53.686;10.094;2023-05-12T12:37:03;101831.63;;;25.28;38.06
19128;BME280;9696;53.686;10.094;2023-05-12T12:39:33;101835.91;;;24.75;44.94
19128;BME280;9696;53.686;10.094;2023-05-12T12:42:04;101829.28;;;25.12;46.26
19128;BME280;9696;53.686;10.094;2023-05-12T12:44:33;101828.09;;;24.18;42.45
19128;BME280;9696;53.686;10.094;2023-05-12T12:47:03;101822.91;;;25.26;48.37
19128;BME280;9696;53.686;10.094;2023-05-12T12:49:32;101822.97;;;24.85;47.05
19128;BME280;9696;53.686;10.094;2023-05-12T12:52:01;101823.94;;;25.18;41.99
19128;BME280;9696;53.686;10.094;2023-05-12T12:54:30;101824.47;;;25.68;44.49
19128;BME280;9696;53.686;10.094;2023-05-12T12:57:00;101833.81;;;25.78;40.72
19128;BME280;9696;53.686;10.094;2023-05-12T12:59:30;101824.41;;;25.35;38.94